Flight Track Log - Related Links

Times and Time Zones

All times are in EDT time to prevent confusion due to time zone crossing. See the AWE769 flight status page for this flight to view local times or setup timezone preferences in your user account.

Time Position Orientation Groundspeed Altitude Reporting Facility
EDT Latitude Longitude Course Direction KTS MPH feet Rate Location/Type
Tue 03:56:32 PM 39.8714 -75.2151 70° East 169 194 1,100  Level FlightAware ADS-B
Tue 03:56:47 PM 39.8763 -75.2004 67° East 172 198 1,900 2,516 Climbing FlightAware ADS-B
Tue 03:57:03 PM 39.8816 -75.1834 68° East 197 227 2,400 2,222 Climbing FlightAware ADS-B
Tue 03:57:14 PM 39.8850 -75.1716 69° East 202 232 2,900 3,111 Climbing FlightAware ADS-B
Tue 03:57:30 PM 39.8905 -75.1534 68° East 206 237 3,800 3,545 Climbing FlightAware ADS-B
Tue 03:57:36 PM 39.8927 -75.1467 67° East 205 236 4,200 3,818 Climbing FlightAware ADS-B
Tue 03:57:41 PM 39.8951 -75.1412 60° Northeast 207 238 4,500 4,000 Climbing FlightAware ADS-B
Tue 03:57:45 PM 39.8977 -75.1365 54° Northeast 212 244 4,800 3,000 Climbing FlightAware ADS-B
Tue 03:57:49 PM 39.9001 -75.1331 47° Northeast 220 253 4,900 1,500 Climbing FlightAware ADS-B
Tue 03:57:53 PM 39.9032 -75.1300 37° Northeast 228 262 5,000 2,400 Climbing FlightAware ADS-B
Tue 03:57:59 PM 39.9097 -75.1261 25° Northeast 237 273 5,300 2,769 Climbing FlightAware ADS-B
Tue 03:58:06 PM 39.9166 -75.1245 10° North 246 283 5,600 2,500 Climbing FlightAware ADS-B
Tue 03:58:11 PM 39.9221 -75.1252 354° North 254 292 5,800 2,667 Climbing FlightAware ADS-B
Tue 03:58:15 PM 39.9267 -75.1268 345° North 261 300 6,000 2,571 Climbing FlightAware ADS-B
Tue 03:58:18 PM 39.9305 -75.1288 338° Northwest 265 305 6,100 2,667 Climbing FlightAware ADS-B
Tue 03:58:24 PM 39.9370 -75.1343 327° Northwest 270 311 6,400 3,000 Climbing FlightAware ADS-B
Tue 03:58:28 PM 39.9412 -75.1396 316° Northwest 273 314 6,600 2,727 Climbing FlightAware ADS-B
Tue 03:58:35 PM 39.9456 -75.1475 306° West 276 318 6,900 2,727 Climbing FlightAware ADS-B
Tue 03:58:39 PM 39.9483 -75.1547 296° West 276 318 7,100 3,333 Climbing FlightAware ADS-B
Tue 03:58:44 PM 39.9502 -75.1619 289° West 275 316 7,400 3,545 Climbing FlightAware ADS-B
Tue 03:59:01 PM 39.9501 -75.1894 270° West 270 311 8,400 3,273 Climbing FlightAware ADS-B
Tue 03:59:06 PM 39.9485 -75.1970 255° West 275 316 8,600 1,714 Climbing FlightAware ADS-B
Tue 03:59:22 PM 39.9428 -75.2225 254° West 296 341 9,000 2,143 Climbing FlightAware ADS-B
Tue 03:59:34 PM 39.9379 -75.2445 254° West 307 353 9,600 1,714 Climbing FlightAware ADS-B
Tue 03:59:50 PM 39.9315 -75.2754 255° West 332 382 9,800 563 Climbing FlightAware ADS-B
Tue 04:00:06 PM 39.9257 -75.3065 256° West 345 397 9,900 176 Climbing FlightAware ADS-B
Tue 04:00:24 PM 39.9190 -75.3430 257° West 348 400 9,900  Level FlightAware ADS-B
Tue 04:00:40 PM 39.9131 -75.3750 256° West 344 396 9,900  Level FlightAware ADS-B
Tue 04:00:59 PM 39.9058 -75.4136 256° West 344 396 9,900  Level FlightAware ADS-B
Tue 04:01:14 PM 39.8998 -75.4448 256° West 344 396 9,900  Level FlightAware ADS-B
Tue 04:01:30 PM 39.8936 -75.4752 255° West 345 397 9,900  Level FlightAware ADS-B
Tue 04:01:42 PM 39.8886 -75.5008 256° West 349 402 9,900  Level FlightAware ADS-B
Tue 04:01:49 PM 39.8866 -75.5161 260° West 351 404 9,900  Level FlightAware ADS-B
Tue 04:01:53 PM 39.8861 -75.5241 265° West 353 406 9,900  Level FlightAware ADS-B
Tue 04:02:01 PM 39.8862 -75.5394 270° West 355 409 9,900  Level FlightAware ADS-B
Tue 04:02:05 PM 39.8869 -75.5488 276° West 355 409 9,900  Level FlightAware ADS-B
Tue 04:02:20 PM 39.8900 -75.5809 277° West 354 407 9,900 1,404 Level FlightAware ADS-B
Tue 04:02:52 PM 39.8962 -75.6488 277° West 364 419 11,000 1,839 Climbing FlightAware ADS-B
Tue 04:03:22 PM 39.9025 -75.7154 277° West 362 417 11,800 2,066 Climbing FlightAware ADS-B
Tue 04:03:53 PM 39.9092 -75.7816 278° West 369 425 13,100 2,681 Climbing FlightAware ADS-B
Tue 04:04:09 PM 39.9128 -75.8179 277° West 374 430 13,900 2,903 Climbing FlightAware ADS-B
Tue 04:04:24 PM 39.9123 -75.8524 269° West 374 430 14,600 2,667 Climbing FlightAware ADS-B
Tue 04:04:36 PM 39.9080 -75.8769 257° West 373 429 15,100 3,000 Climbing FlightAware ADS-B
Tue 04:04:52 PM 39.8967 -75.9109 247° West 373 429 16,000 3,061 Climbing FlightAware ADS-B
Tue 04:05:25 PM 39.8692 -75.9763 241° Southwest 375 432 17,600 2,906 Climbing FlightAware ADS-B
Tue 04:05:56 PM 39.8376 -76.0326 234° Southwest 377 434 19,100 2,613 Climbing FlightAware ADS-B
Tue 04:06:27 PM 39.8048 -76.0894 233° Southwest 386 444 20,300 2,419 Climbing FlightAware ADS-B
Tue 04:06:58 PM 39.7717 -76.1464 233° Southwest 389 448 21,600 2,400 Climbing FlightAware ADS-B
Tue 04:07:32 PM 39.7350 -76.2118 234° Southwest 397 457 22,900 2,308 Climbing FlightAware ADS-B
Tue 04:08:03 PM 39.7018 -76.2711 234° Southwest 401 461 24,100 2,182 Climbing FlightAware ADS-B
Tue 04:08:38 PM 39.6636 -76.3414 235° Southwest 407 468 25,300 1,754 Climbing FlightAware ADS-B
Tue 04:09:08 PM 39.6309 -76.4023 235° Southwest 420 483 26,000 1,524 Climbing FlightAware ADS-B
Tue 04:09:41 PM 39.5940 -76.4710 235° Southwest 428 493 26,900 1,478 Climbing FlightAware ADS-B
Tue 04:10:17 PM 39.5523 -76.5488 235° Southwest 441 507 27,700 1,500 Climbing FlightAware ADS-B
Tue 04:10:49 PM 39.5154 -76.6174 235° Southwest 450 518 28,600 1,612 Climbing FlightAware ADS-B
Tue 04:11:24 PM 39.4744 -76.6952 236° Southwest 456 525 29,500 1,592 Climbing FlightAware ADS-B
Tue 04:11:38 PM 39.4550 -76.7259 231° Southwest 455 524 29,900 1,500 Climbing FlightAware ADS-B
Tue 04:12:08 PM 39.4112 -76.7854 226° Southwest 461 531 30,600 1,574 Climbing FlightAware ADS-B
Tue 04:12:39 PM 39.3659 -76.8458 226° Southwest 466 536 31,500 2,000 Climbing FlightAware ADS-B
Tue 04:13:11 PM 39.3178 -76.9106 226° Southwest 468 539 32,700 2,507 Climbing FlightAware ADS-B
Tue 04:13:46 PM 39.2667 -76.9812 227° Southwest 459 528 34,300 3,091 Climbing FlightAware ADS-B
Tue 04:14:17 PM 39.2241 -77.0430 228° Southwest 437 503 36,100 2,417 Climbing FlightAware ADS-B
Tue 04:14:58 PM 39.1693 -77.1213 228° Southwest 435 501 37,200 1,459 Climbing FlightAware ADS-B
Tue 04:15:31 PM 39.1208 -77.1779 222° Southwest 432 497 37,900 716 Climbing FlightAware ADS-B
Tue 04:16:05 PM 39.0664 -77.2305 217° Southwest 435 501 38,000 94 Climbing FlightAware ADS-B
Tue 04:16:35 PM 39.0169 -77.2773 216° Southwest 439 505 38,000  Level FlightAware ADS-B
Tue 04:16:47 PM 38.9990 -77.2972 221° Southwest 441 507 38,000  Level FlightAware ADS-B
Tue 04:17:00 PM 38.9814 -77.3237 229° Southwest 442 509 38,000  Level FlightAware ADS-B
Tue 04:17:41 PM 38.9391 -77.4164 240° Southwest 441 507 38,000  Level FlightAware ADS-B
Tue 04:18:38 PM 38.8844 -77.5489 242° Southwest 441 507 38,000  Level FlightAware ADS-B
Tue 04:19:22 PM 38.8450 -77.6470 243° Southwest 447 514 38,000  Level FlightAware ADS-B
Tue 04:20:02 PM 38.8070 -77.7410 243° Southwest 448 516 38,000  Level FlightAware ADS-B
Tue 04:20:47 PM 38.7640 -77.8480 243° Southwest 454 522 38,000  Level FlightAware ADS-B
Tue 04:21:27 PM 38.7220 -77.9390 239° Southwest 450 518 38,000  Level FlightAware ADS-B
Tue 04:22:07 PM 38.6690 -78.0190 230° Southwest 443 510 38,000  Level FlightAware ADS-B
Tue 04:22:52 PM 38.5880 -78.0730 208° Southwest 441 507 38,000  Level FlightAware ADS-B
Tue 04:23:32 PM 38.5210 -78.1350 216° Southwest 447 514 38,000  Level FlightAware ADS-B
Tue 04:24:17 PM 38.4500 -78.2080 219° Southwest 445 512 38,000  Level FlightAware ADS-B
Tue 04:24:52 PM 38.3940 -78.2580 215° Southwest 439 505 38,000  Level FlightAware ADS-B
Tue 04:25:37 PM 38.3140 -78.3150 209° Southwest 421 484 38,000  Level FlightAware ADS-B
Tue 04:26:22 PM 38.2350 -78.3650 206° Southwest 417 480 38,000  Level FlightAware ADS-B
Tue 04:26:57 PM 38.1830 -78.4000 208° Southwest 419 482 38,000  Level FlightAware ADS-B
Tue 04:27:52 PM 38.0960 -78.4650 210° Southwest 422 486 38,000  Level FlightAware ADS-B
Tue 04:28:42 PM 38.0010 -78.5390 212° Southwest 433 498 38,000  Level FlightAware ADS-B
Tue 04:29:12 PM 37.9630 -78.5680 211° Southwest 435 501 38,000  Level FlightAware ADS-B
Tue 04:30:02 PM 37.8700 -78.6380 211° Southwest 440 506 38,000  Level FlightAware ADS-B
Tue 04:31:02 PM 37.7690 -78.7140 211° Southwest 436 502 38,000  Level FlightAware ADS-B
Tue 04:31:42 PM 37.7100 -78.7590 211° Southwest 436 502 38,000  Level FlightAware ADS-B
Tue 04:32:22 PM 37.6520 -78.8030 211° Southwest 436 502 38,000  Level FlightAware ADS-B
Tue 04:33:02 PM 37.5930 -78.8480 211° Southwest 436 502 38,000  Level FlightAware ADS-B
Tue 04:33:52 PM 37.5190 -78.9040 211° Southwest 436 502 38,000  Level FlightAware ADS-B
Tue 04:34:22 PM 37.4040 -78.9790 207° Southwest 429 494 38,000  Level FlightAware ADS-B
Tue 04:35:12 PM 37.3060 -79.0490 210° Southwest 436 502 38,000  Level FlightAware ADS-B
Tue 04:35:52 PM 37.2440 -79.0940 210° Southwest 437 503 38,000  Level FlightAware ADS-B
Tue 04:36:32 PM 37.1840 -79.1370 210° Southwest 437 503 38,000  Level FlightAware ADS-B
Tue 04:37:12 PM 37.1250 -79.1800 210° Southwest 437 503 38,000  Level FlightAware ADS-B
Tue 04:38:02 PM 37.0500 -79.2340 210° Southwest 437 503 38,000  Level FlightAware ADS-B
Tue 04:38:42 PM 36.9910 -79.2770 210° Southwest 437 503 38,000  Level FlightAware ADS-B
Tue 04:39:22 PM 36.9310 -79.3200 210° Southwest 437 503 38,000  Level FlightAware ADS-B
Tue 04:40:02 PM 36.8720 -79.3630 210° Southwest 437 503 38,000  Level FlightAware ADS-B
Tue 04:40:42 PM 36.8120 -79.4060 210° Southwest 437 503 38,000  Level FlightAware ADS-B
Tue 04:41:32 PM 36.7380 -79.4600 210° Southwest 437 503 38,000  Level FlightAware ADS-B
Tue 04:42:12 PM 36.6780 -79.5020 209° Southwest 437 503 38,000  Level FlightAware ADS-B
Tue 04:42:52 PM 36.6190 -79.5450 210° Southwest 437 503 38,000  Level FlightAware ADS-B
Tue 04:43:32 PM 36.5590 -79.5880 210° Southwest 437 503 38,000  Level FlightAware ADS-B
Tue 04:44:12 PM 36.4990 -79.6310 210° Southwest 437 503 38,000  Level FlightAware ADS-B
Tue 04:45:02 PM 36.4250 -79.6840 210° Southwest 437 503 38,000  Level FlightAware ADS-B
Tue 04:45:58 PM 36.1222 -79.8461 210° Southwest 454 522 38,000  Level Atlanta Center
Tue 04:46:58 PM 36.0075 -79.9061 203° Southwest 454 522 38,000  Level Atlanta Center
Tue 04:47:58 PM 35.9053 -79.9650 205° Southwest 454 522 38,000  Level Atlanta Center
Tue 04:53:22 PM 35.2750 -80.3060 205° Southwest 448 516 38,000  Level FlightAware ADS-B
Tue 04:54:07 PM 35.1890 -80.3520 204° Southwest 448 516 38,000  Level FlightAware ADS-B
Tue 04:54:42 PM 35.1310 -80.3820 203° Southwest 447 514 38,000  Level FlightAware ADS-B
Tue 04:55:27 PM 35.0410 -80.4300 204° Southwest 448 516 38,000  Level FlightAware ADS-B
Tue 04:56:12 PM 34.9540 -80.4750 203° Southwest 449 517 38,000  Level FlightAware ADS-B
Tue 04:56:47 PM 34.8880 -80.5100 204° Southwest 446 513 38,000  Level FlightAware ADS-B
Tue 04:57:32 PM 34.8000 -80.5570 204° Southwest 442 509 38,000  Level FlightAware ADS-B
Tue 04:58:17 PM 34.7150 -80.6020 204° Southwest 441 507 38,000  Level FlightAware ADS-B
Tue 04:58:52 PM 34.6510 -80.6360 204° Southwest 441 507 38,000  Level FlightAware ADS-B
Tue 04:59:42 PM 34.5570 -80.6860 204° Southwest 441 507 38,000  Level FlightAware ADS-B
Tue 05:00:22 PM 34.4840 -80.7250 204° Southwest 441 507 38,000  Level FlightAware ADS-B
Tue 05:00:57 PM 34.4230 -80.7570 203° Southwest 442 509 38,000  Level FlightAware ADS-B
Tue 05:01:47 PM 34.3250 -80.8090 204° Southwest 442 509 38,000  Level FlightAware ADS-B
Tue 05:02:22 PM 34.2630 -80.8420 204° Southwest 440 506 38,000  Level FlightAware ADS-B
Tue 05:03:07 PM 34.1760 -80.8870 203° Southwest 439 505 38,000  Level FlightAware ADS-B
Tue 05:03:52 PM 34.0930 -80.9300 203° Southwest 436 502 38,000  Level FlightAware ADS-B
Tue 05:04:32 PM 34.0160 -80.9700 203° Southwest 435 501 38,000  Level FlightAware ADS-B
Tue 05:05:17 PM 33.9310 -81.0130 203° Southwest 432 497 38,000  Level FlightAware ADS-B
Tue 05:05:57 PM 33.8590 -81.0500 203° Southwest 430 495 38,000  Level FlightAware ADS-B
Tue 05:06:42 PM 33.7730 -81.0930 203° Southwest 429 494 38,000  Level FlightAware ADS-B
Tue 05:07:22 PM 33.7000 -81.1290 202° Southwest 426 490 38,000  Level FlightAware ADS-B
Tue 05:08:02 PM 33.6270 -81.1650 202° Southwest 426 490 38,000  Level FlightAware ADS-B
Tue 05:08:47 PM 33.5450 -81.2050 202° Southwest 427 491 38,000  Level FlightAware ADS-B
Tue 05:09:27 PM 33.4750 -81.2400 203° Southwest 428 493 38,000  Level FlightAware ADS-B
Tue 05:10:12 PM 33.3900 -81.2810 202° Southwest 428 493 38,000  Level FlightAware ADS-B
Tue 05:10:52 PM 33.3170 -81.3170 202° Southwest 426 490 38,000  Level FlightAware ADS-B
Tue 05:11:32 PM 33.2430 -81.3520 202° Southwest 426 490 38,000  Level FlightAware ADS-B
Tue 05:12:17 PM 33.1620 -81.3910 202° Southwest 430 495 38,000  Level FlightAware ADS-B
Tue 05:12:57 PM 33.0940 -81.4240 202° Southwest 436 502 38,000  Level FlightAware ADS-B
Tue 05:13:42 PM 33.0100 -81.4650 202° Southwest 442 509 38,000  Level FlightAware ADS-B
Tue 05:14:22 PM 32.9280 -81.5040 202° Southwest 444 511 38,000  Level FlightAware ADS-B
Tue 05:15:02 PM 32.8530 -81.5400 202° Southwest 444 511 38,000  Level FlightAware ADS-B
Tue 05:15:42 PM 32.7800 -81.5760 203° Southwest 444 511 38,000  Level FlightAware ADS-B
Tue 05:16:42 PM 32.6770 -81.6260 202° Southwest 440 506 38,000  Level FlightAware ADS-B
Tue 05:17:22 PM 32.6140 -81.6590 204° Southwest 440 506 38,000  Level FlightAware ADS-B
Tue 05:18:02 PM 32.5500 -81.6910 203° Southwest 440 506 38,000  Level FlightAware ADS-B
Tue 05:18:42 PM 32.4570 -81.7300 199° South 416 479 38,000  Level FlightAware ADS-B
Tue 05:19:42 PM 32.3550 -81.7790 202° Southwest 409 471 38,000  Level FlightAware ADS-B
Tue 05:20:27 PM 32.2710 -81.8180 201° Southwest 409 471 38,000  Level FlightAware ADS-B
Tue 05:21:02 PM 32.2160 -81.8460 203° Southwest 409 471 38,000  Level FlightAware ADS-B
Tue 05:21:52 PM 32.1420 -81.8830 203° Southwest 409 471 38,000  Level FlightAware ADS-B
Tue 05:22:32 PM 32.0830 -81.9130 203° Southwest 409 471 38,000  Level FlightAware ADS-B
Tue 05:23:12 PM 32.0240 -81.9420 203° Southwest 409 471 38,000  Level FlightAware ADS-B
Tue 05:23:52 PM 31.9640 -81.9720 203° Southwest 409 471 38,000  Level FlightAware ADS-B
Tue 05:24:32 PM 31.9050 -82.0020 203° Southwest 409 471 38,000  Level FlightAware ADS-B
Tue 05:25:22 PM 31.8310 -82.0390 203° Southwest 409 471 38,000  Level FlightAware ADS-B
Tue 05:26:02 PM 31.7720 -82.0680 203° Southwest 409 471 38,000  Level FlightAware ADS-B
Tue 05:26:42 PM 31.7130 -82.0980 203° Southwest 409 471 38,000  Level FlightAware ADS-B
Tue 05:27:22 PM 31.6530 -82.1270 202° Southwest 409 471 38,000  Level FlightAware ADS-B
Tue 05:28:02 PM 31.5940 -82.1570 203° Southwest 409 471 38,000  Level FlightAware ADS-B
Tue 05:28:42 PM 31.5350 -82.1860 203° Southwest 409 471 38,000  Level FlightAware ADS-B
Tue 05:29:32 PM 31.4610 -82.2230 203° Southwest 409 471 38,000  Level FlightAware ADS-B
Tue 05:30:12 PM 31.4020 -82.2530 203° Southwest 409 471 38,000  Level FlightAware ADS-B
Tue 05:30:38 PM 31.1214 -82.3125 203° Southwest 432 497 38,000  Level Jacksonville Center
Tue 05:31:38 PM 31.0086 -82.3544 198° South 432 497 38,000  Level Jacksonville Center
Tue 05:37:57 PM 30.3140 -82.3960 198° South 444 511 38,000  Level FlightAware ADS-B
Tue 05:38:37 PM 30.2540 -82.3520 148° Southeast 444 511 38,000 -943 Level FlightAware ADS-B
Tue 05:39:07 PM 30.1840 -82.3480 177° South 414 476 36,900 -1,286 Descending FlightAware ADS-B
Tue 05:39:47 PM 30.1110 -82.3490 181° South 405 466 36,500 -800 Descending FlightAware ADS-B
Tue 05:40:22 PM 30.0440 -82.3500 181° South 405 466 35,900 -776 Descending FlightAware ADS-B
Tue 05:41:12 PM 29.9540 -82.3500 180° South 399 459 35,400 -933 Descending FlightAware ADS-B
Tue 05:41:52 PM 29.8760 -82.3500 180° South 396 456 34,500 -1,906 Descending FlightAware ADS-B
Tue 05:42:37 PM 29.7950 -82.3490 179° South 405 466 32,700 -3,247 Descending FlightAware ADS-B
Tue 05:43:17 PM 29.7190 -82.3490 180° South 415 478 29,900 -3,900 Descending FlightAware ADS-B
Tue 05:43:57 PM 29.6370 -82.3490 180° South 429 494 27,500 -1,976 Descending FlightAware ADS-B
Tue 05:44:42 PM 29.5630 -82.3470 179° South 416 479 27,100 -847 Descending FlightAware ADS-B
Tue 05:45:22 PM 29.4750 -82.3370 174° South 410 472 26,300 -776 Descending FlightAware ADS-B
Tue 05:46:07 PM 29.3930 -82.3280 175° South 404 465 26,000 -424 Descending FlightAware ADS-B
Tue 05:46:47 PM 29.3190 -82.3190 174° South 406 467 25,700 -988 Descending FlightAware ADS-B
Tue 05:47:32 PM 29.2330 -82.3090 174° South 398 458 24,600 -1,694 Descending FlightAware ADS-B
Tue 05:48:12 PM 29.1590 -82.3000 174° South 391 450 23,300 -2,550 Descending FlightAware ADS-B
Tue 05:48:52 PM 29.0910 -82.2930 175° South 373 429 21,200 -3,459 Descending FlightAware ADS-B
Tue 05:49:37 PM 29.0140 -82.2840 174° South 367 422 18,400 -3,529 Descending FlightAware ADS-B
Tue 05:50:17 PM 28.9480 -82.2760 174° South 351 404 16,200 -3,075 Descending FlightAware ADS-B
Tue 05:50:57 PM 28.8840 -82.2690 175° South 351 404 14,300 -1,835 Descending FlightAware ADS-B
Tue 05:51:42 PM 28.8110 -82.2600 174° South 339 390 13,600 -514 Descending FlightAware ADS-B
Tue 05:52:42 PM 28.7260 -82.2500 174° South 332 382 13,400 -733 Descending FlightAware ADS-B
Tue 05:53:12 PM 28.6820 -82.2500 180° South 300 345 12,500 -635 Descending FlightAware ADS-B
Tue 05:54:07 PM 28.6130 -82.2490 179° South 300 345 12,500 -1,482 Level FlightAware ADS-B
Tue 05:54:37 PM 28.5670 -82.2480 179° South 294 338 10,400 -3,164 Descending FlightAware ADS-B
Tue 05:55:02 PM 28.5280 -82.2480 180° South 294 338 9,600 -1,800 Descending FlightAware ADS-B
Tue 05:55:27 PM 28.4920 -82.2470 179° South 294 338 8,900 -1,560 Descending FlightAware ADS-B
Tue 05:55:52 PM 28.4580 -82.2460 179° South 292 336 8,300 -1,418 Descending FlightAware ADS-B
Tue 05:56:22 PM 28.4190 -82.2490 184° South 281 323 7,600 -1,320 Descending FlightAware ADS-B
Tue 05:56:42 PM 28.3940 -82.2580 198° South 274 315 7,200 -1,200 Descending FlightAware ADS-B
Tue 05:57:17 PM 28.3540 -82.2760 202° Southwest 266 306 6,500 -923 Descending FlightAware ADS-B
Tue 05:57:47 PM 28.3200 -82.2910 201° Southwest 258 297 6,200 -667 Descending FlightAware ADS-B
Tue 05:58:02 PM 28.3040 -82.3000 206° Southwest 252 290 6,000 -720 Descending FlightAware ADS-B
Tue 05:58:12 PM 28.2950 -82.3100 224° Southwest 247 284 5,900 -800 Descending FlightAware ADS-B
Tue 05:58:32 PM 28.2870 -82.3340 249° West 238 274 5,600 -667 Descending FlightAware ADS-B
Tue 05:58:57 PM 28.2820 -82.3620 259° West 227 261 5,400 -764 Descending FlightAware ADS-B
Tue 05:59:27 PM 28.2770 -82.3970 261° West 220 253 4,900 -1,067 Descending FlightAware ADS-B
Tue 05:59:42 PM 28.2740 -82.4130 258° West 219 252 4,600 -1,200 Descending FlightAware ADS-B
Tue 06:00:07 PM 28.2690 -82.4430 259° West 218 251 4,100 -982 Descending FlightAware ADS-B
Tue 06:00:37 PM 28.2590 -82.4720 249° West 217 250 3,700 -1,067 Descending FlightAware ADS-B
Tue 06:00:52 PM 28.2490 -82.4880 235° Southwest 218 251 3,300 -1,440 Descending FlightAware ADS-B
Tue 06:01:02 PM 28.2410 -82.4950 218° Southwest 219 252 3,100 -600 Descending FlightAware ADS-B
Tue 06:01:32 PM 28.2170 -82.5150 216° Southwest 226 260 2,900 -218 Descending FlightAware ADS-B
Tue 06:01:57 PM 28.1980 -82.5280 211° Southwest 217 250 2,900  Level FlightAware ADS-B
Tue 06:02:17 PM 28.1740 -82.5310 186° South 201 231 2,900  Level FlightAware ADS-B
Tue 06:02:37 PM 28.1570 -82.5310 180° South 186 214 2,900  Level FlightAware ADS-B
Tue 06:02:57 PM 28.1400 -82.5310 180° South 173 199 2,900 -267 Level FlightAware ADS-B
Tue 06:03:22 PM 28.1200 -82.5310 180° South 172 198 2,700 -750 Descending FlightAware ADS-B
Tue 06:03:37 PM 28.1090 -82.5320 185° South 171 197 2,400 -1,000 Descending FlightAware ADS-B
Tue 06:03:52 PM 28.0990 -82.5320 180° South 167 192 2,200 -667 Descending FlightAware ADS-B
Tue 06:04:22 PM 28.0750 -82.5330 182° South 149 171 1,900 -873 Descending FlightAware ADS-B
Tue 06:04:47 PM 28.0580 -82.5340 183° South 132 152 1,400 -873 Descending FlightAware ADS-B
Tue 06:05:17 PM 28.0410 -82.5350 183° South 129 148 1,100 -700 Descending FlightAware ADS-B
Tue 06:05:47 PM 28.0230 -82.5360 183° South 130 150 700 -655 Descending FlightAware ADS-B
Tue 06:06:12 PM 28.0090 -82.5360 180° South 127 146 500 -686 Descending FlightAware ADS-B
Tue 06:06:22 PM 28.0020 -82.5370 187° South 122 140 300 -300 Descending FlightAware ADS-B
Tue 06:06:52 PM 27.9860 -82.5370 180° South 124 143 300  Level FlightAware ADS-B

Login

Don't have an account? Register now (free) for customized features, flight alerts, and more!